sensor_id;sensor_type;location;lat;lon;timestamp;P1;durP1;ratioP1;P2;durP2;ratioP2
17340;SDS011;8788;49.930;8.660;2022-12-15T04:03:35;9.95;;;7.05;;
17340;SDS011;8788;49.930;8.660;2022-12-15T04:06:02;14.45;;;7.07;;
17340;SDS011;8788;49.930;8.660;2022-12-15T04:08:29;11.27;;;6.05;;
17340;SDS011;8788;49.930;8.660;2022-12-15T04:10:56;15.27;;;6.50;;
17340;SDS011;8788;49.930;8.660;2022-12-15T04:13:23;11.50;;;6.65;;
17340;SDS011;8788;49.930;8.660;2022-12-15T04:15:50;13.23;;;6.97;;
17340;SDS011;8788;49.930;8.660;2022-12-15T04:18:18;15.45;;;7.05;;
17340;SDS011;8788;49.930;8.660;2022-12-15T04:20:46;13.82;;;6.97;;
17340;SDS011;8788;49.930;8.660;2022-12-15T04:23:13;11.15;;;6.70;;
17340;SDS011;8788;49.930;8.660;2022-12-15T04:25:40;12.45;;;7.00;;
17340;SDS011;8788;49.930;8.660;2022-12-15T04:28:25;12.32;;;7.75;;
17340;SDS011;8788;49.930;8.660;2022-12-15T04:31:10;10.70;;;6.57;;
17340;SDS011;8788;49.930;8.660;2022-12-15T04:33:58;12.25;;;7.43;;
17340;SDS011;8788;49.930;8.660;2022-12-15T04:36:49;11.82;;;6.80;;
17340;SDS011;8788;49.930;8.660;2022-12-15T04:39:35;12.90;;;8.48;;
17340;SDS011;8788;49.930;8.660;2022-12-15T04:42:22;15.60;;;7.82;;
17340;SDS011;8788;49.930;8.660;2022-12-15T04:45:07;15.25;;;8.30;;
17340;SDS011;8788;49.930;8.660;2022-12-15T04:47:53;13.90;;;7.25;;
17340;SDS011;8788;49.930;8.660;2022-12-15T04:50:37;14.18;;;7.93;;
17340;SDS011;8788;49.930;8.660;2022-12-15T04:53:23;16.55;;;9.02;;
17340;SDS011;8788;49.930;8.660;2022-12-15T04:56:09;15.15;;;8.27;;
17340;SDS011;8788;49.930;8.660;2022-12-15T04:58:54;13.93;;;8.25;;
17340;SDS011;8788;49.930;8.660;2022-12-15T05:01:38;11.30;;;7.68;;
17340;SDS011;8788;49.930;8.660;2022-12-15T05:04:23;11.27;;;6.80;;
17340;SDS011;8788;49.930;8.660;2022-12-15T05:07:08;12.80;;;7.47;;
17340;SDS011;8788;49.930;8.660;2022-12-15T05:09:54;12.75;;;7.53;;
17340;SDS011;8788;49.930;8.660;2022-12-15T05:12:39;11.50;;;7.35;;
17340;SDS011;8788;49.930;8.660;2022-12-15T05:15:23;13.82;;;8.05;;
17340;SDS011;8788;49.930;8.660;2022-12-15T05:18:08;21.33;;;9.00;;
17340;SDS011;8788;49.930;8.660;2022-12-15T05:20:53;18.92;;;10.05;;
17340;SDS011;8788;49.930;8.660;2022-12-15T05:23:37;15.95;;;8.75;;
17340;SDS011;8788;49.930;8.660;2022-12-15T05:26:23;13.88;;;8.45;;
17340;SDS011;8788;49.930;8.660;2022-12-15T05:29:07;16.63;;;8.73;;
17340;SDS011;8788;49.930;8.660;2022-12-15T05:31:52;15.52;;;9.05;;
17340;SDS011;8788;49.930;8.660;2022-12-15T05:34:21;14.50;;;8.18;;
17340;SDS011;8788;49.930;8.660;2022-12-15T05:36:50;13.90;;;9.48;;
17340;SDS011;8788;49.930;8.660;2022-12-15T05:39:18;15.77;;;8.93;;
17340;SDS011;8788;49.930;8.660;2022-12-15T05:41:46;13.98;;;8.65;;
17340;SDS011;8788;49.930;8.660;2022-12-15T05:44:13;17.20;;;8.98;;
17340;SDS011;8788;49.930;8.660;2022-12-15T05:46:41;14.75;;;9.05;;
17340;SDS011;8788;49.930;8.660;2022-12-15T05:49:11;14.00;;;9.63;;
17340;SDS011;8788;49.930;8.660;2022-12-15T05:51:39;21.17;;;11.88;;
17340;SDS011;8788;49.930;8.660;2022-12-15T05:54:07;14.25;;;9.93;;
17340;SDS011;8788;49.930;8.660;2022-12-15T05:56:35;23.27;;;10.93;;
17340;SDS011;8788;49.930;8.660;2022-12-15T05:59:04;21.45;;;10.45;;
17340;SDS011;8788;49.930;8.660;2022-12-15T06:01:31;15.45;;;9.82;;
17340;SDS011;8788;49.930;8.660;2022-12-15T06:03:59;16.42;;;10.20;;
17340;SDS011;8788;49.930;8.660;2022-12-15T06:06:27;21.65;;;9.95;;
17340;SDS011;8788;49.930;8.660;2022-12-15T06:08:54;14.25;;;9.73;;
17340;SDS011;8788;49.930;8.660;2022-12-15T06:11:21;18.83;;;10.13;;
17340;SDS011;8788;49.930;8.660;2022-12-15T06:13:48;16.10;;;10.07;;
17340;SDS011;8788;49.930;8.660;2022-12-15T06:16:17;15.48;;;11.02;;
17340;SDS011;8788;49.930;8.660;2022-12-15T06:18:46;21.33;;;10.68;;
17340;SDS011;8788;49.930;8.660;2022-12-15T06:21:15;18.38;;;10.70;;
17340;SDS011;8788;49.930;8.660;2022-12-15T06:23:44;15.38;;;8.90;;
17340;SDS011;8788;49.930;8.660;2022-12-15T06:26:12;16.38;;;8.98;;
17340;SDS011;8788;49.930;8.660;2022-12-15T06:28:42;19.98;;;9.38;;
17340;SDS011;8788;49.930;8.660;2022-12-15T06:31:11;17.55;;;10.30;;
17340;SDS011;8788;49.930;8.660;2022-12-15T06:33:40;17.52;;;10.15;;
17340;SDS011;8788;49.930;8.660;2022-12-15T06:36:08;17.42;;;9.13;;
17340;SDS011;8788;49.930;8.660;2022-12-15T06:38:36;19.67;;;10.27;;
17340;SDS011;8788;49.930;8.660;2022-12-15T06:41:04;14.25;;;9.40;;
17340;SDS011;8788;49.930;8.660;2022-12-15T06:43:32;12.57;;;8.13;;
17340;SDS011;8788;49.930;8.660;2022-12-15T06:46:00;16.88;;;9.25;;
17340;SDS011;8788;49.930;8.660;2022-12-15T06:48:27;17.35;;;9.25;;
17340;SDS011;8788;49.930;8.660;2022-12-15T06:50:56;16.08;;;10.18;;
17340;SDS011;8788;49.930;8.660;2022-12-15T06:53:29;17.77;;;9.80;;
17340;SDS011;8788;49.930;8.660;2022-12-15T06:55:58;19.80;;;10.35;;
17340;SDS011;8788;49.930;8.660;2022-12-15T06:58:26;16.75;;;10.77;;
17340;SDS011;8788;49.930;8.660;2022-12-15T07:00:54;21.48;;;10.88;;
17340;SDS011;8788;49.930;8.660;2022-12-15T07:03:21;18.55;;;8.90;;
17340;SDS011;8788;49.930;8.660;2022-12-15T07:05:48;17.83;;;10.80;;
17340;SDS011;8788;49.930;8.660;2022-12-15T07:08:28;18.17;;;10.45;;
17340;SDS011;8788;49.930;8.660;2022-12-15T07:10:55;18.67;;;10.85;;
17340;SDS011;8788;49.930;8.660;2022-12-15T07:13:22;15.68;;;10.43;;
17340;SDS011;8788;49.930;8.660;2022-12-15T07:15:50;16.13;;;10.23;;
17340;SDS011;8788;49.930;8.660;2022-12-15T07:18:17;22.88;;;10.35;;
17340;SDS011;8788;49.930;8.660;2022-12-15T07:20:44;16.92;;;9.73;;
17340;SDS011;8788;49.930;8.660;2022-12-15T07:23:13;22.27;;;11.30;;
17340;SDS011;8788;49.930;8.660;2022-12-15T07:25:40;16.48;;;10.45;;
17340;SDS011;8788;49.930;8.660;2022-12-15T07:28:07;14.93;;;9.05;;
17340;SDS011;8788;49.930;8.660;2022-12-15T07:30:36;17.95;;;10.55;;
17340;SDS011;8788;49.930;8.660;2022-12-15T07:33:03;15.48;;;8.95;;
17340;SDS011;8788;49.930;8.660;2022-12-15T07:35:31;15.48;;;10.05;;
17340;SDS011;8788;49.930;8.660;2022-12-15T07:37:58;16.17;;;9.57;;
17340;SDS011;8788;49.930;8.660;2022-12-15T07:40:26;16.65;;;9.77;;
17340;SDS011;8788;49.930;8.660;2022-12-15T07:42:53;18.33;;;10.07;;
17340;SDS011;8788;49.930;8.660;2022-12-15T07:45:21;19.33;;;10.77;;
17340;SDS011;8788;49.930;8.660;2022-12-15T07:47:48;16.25;;;8.50;;
17340;SDS011;8788;49.930;8.660;2022-12-15T07:50:16;19.85;;;10.77;;
17340;SDS011;8788;49.930;8.660;2022-12-15T07:52:43;19.33;;;9.95;;
17340;SDS011;8788;49.930;8.660;2022-12-15T07:55:11;19.52;;;9.63;;
17340;SDS011;8788;49.930;8.660;2022-12-15T07:57:39;17.13;;;11.02;;
17340;SDS011;8788;49.930;8.660;2022-12-15T08:00:07;14.40;;;9.27;;
17340;SDS011;8788;49.930;8.660;2022-12-15T08:02:38;17.48;;;11.38;;
17340;SDS011;8788;49.930;8.660;2022-12-15T08:05:06;15.35;;;10.52;;
17340;SDS011;8788;49.930;8.660;2022-12-15T08:07:33;23.50;;;12.07;;
17340;SDS011;8788;49.930;8.660;2022-12-15T08:10:00;20.00;;;12.35;;
17340;SDS011;8788;49.930;8.660;2022-12-15T08:12:28;18.27;;;12.07;;
17340;SDS011;8788;49.930;8.660;2022-12-15T08:14:56;18.65;;;11.57;;
17340;SDS011;8788;49.930;8.660;2022-12-15T08:17:23;24.80;;;12.18;;
17340;SDS011;8788;49.930;8.660;2022-12-15T08:19:50;21.60;;;13.32;;
17340;SDS011;8788;49.930;8.660;2022-12-15T08:22:18;20.48;;;11.88;;
17340;SDS011;8788;49.930;8.660;2022-12-15T08:24:45;22.75;;;11.88;;
17340;SDS011;8788;49.930;8.660;2022-12-15T08:27:12;23.55;;;12.60;;
17340;SDS011;8788;49.930;8.660;2022-12-15T08:29:40;24.02;;;13.00;;
17340;SDS011;8788;49.930;8.660;2022-12-15T08:32:08;25.52;;;12.82;;
17340;SDS011;8788;49.930;8.660;2022-12-15T08:34:35;27.08;;;13.88;;
17340;SDS011;8788;49.930;8.660;2022-12-15T08:37:04;27.02;;;16.00;;
17340;SDS011;8788;49.930;8.660;2022-12-15T08:39:31;24.10;;;13.35;;
17340;SDS011;8788;49.930;8.660;2022-12-15T08:41:58;23.00;;;13.32;;
17340;SDS011;8788;49.930;8.660;2022-12-15T08:44:25;23.75;;;13.18;;
17340;SDS011;8788;49.930;8.660;2022-12-15T08:46:52;25.48;;;12.48;;
17340;SDS011;8788;49.930;8.660;2022-12-15T08:49:20;24.80;;;12.90;;
17340;SDS011;8788;49.930;8.660;2022-12-15T08:51:47;22.15;;;12.52;;
17340;SDS011;8788;49.930;8.660;2022-12-15T08:54:16;23.70;;;14.43;;
17340;SDS011;8788;49.930;8.660;2022-12-15T08:56:43;20.63;;;12.55;;
17340;SDS011;8788;49.930;8.660;2022-12-15T08:59:10;25.63;;;12.60;;
17340;SDS011;8788;49.930;8.660;2022-12-15T09:01:37;23.60;;;13.35;;
17340;SDS011;8788;49.930;8.660;2022-12-15T09:04:04;24.05;;;12.27;;
17340;SDS011;8788;49.930;8.660;2022-12-15T09:06:33;24.75;;;13.05;;
17340;SDS011;8788;49.930;8.660;2022-12-15T09:09:02;20.40;;;12.00;;
17340;SDS011;8788;49.930;8.660;2022-12-15T09:11:31;20.00;;;12.07;;
17340;SDS011;8788;49.930;8.660;2022-12-15T09:13:59;26.52;;;14.05;;
17340;SDS011;8788;49.930;8.660;2022-12-15T09:16:26;23.65;;;13.38;;
17340;SDS011;8788;49.930;8.660;2022-12-15T09:18:54;23.20;;;13.60;;
17340;SDS011;8788;49.930;8.660;2022-12-15T09:21:23;21.42;;;12.80;;
17340;SDS011;8788;49.930;8.660;2022-12-15T09:23:54;25.38;;;13.63;;
17340;SDS011;8788;49.930;8.660;2022-12-15T09:26:24;20.77;;;11.52;;
17340;SDS011;8788;49.930;8.660;2022-12-15T09:28:52;25.60;;;13.77;;
17340;SDS011;8788;49.930;8.660;2022-12-15T09:31:20;21.70;;;13.32;;
17340;SDS011;8788;49.930;8.660;2022-12-15T09:33:49;22.77;;;13.98;;
17340;SDS011;8788;49.930;8.660;2022-12-15T09:36:17;22.60;;;12.98;;
17340;SDS011;8788;49.930;8.660;2022-12-15T09:38:45;25.52;;;13.40;;
17340;SDS011;8788;49.930;8.660;2022-12-15T09:41:17;23.95;;;12.43;;
17340;SDS011;8788;49.930;8.660;2022-12-15T09:43:49;28.35;;;12.63;;
17340;SDS011;8788;49.930;8.660;2022-12-15T09:46:22;24.75;;;14.07;;
17340;SDS011;8788;49.930;8.660;2022-12-15T09:48:56;31.92;;;13.05;;
17340;SDS011;8788;49.930;8.660;2022-12-15T09:51:28;24.83;;;14.73;;
17340;SDS011;8788;49.930;8.660;2022-12-15T09:53:59;22.48;;;13.35;;
17340;SDS011;8788;49.930;8.660;2022-12-15T09:56:31;24.05;;;13.50;;
17340;SDS011;8788;49.930;8.660;2022-12-15T09:59:08;21.77;;;12.90;;
17340;SDS011;8788;49.930;8.660;2022-12-15T10:01:46;27.85;;;14.45;;
17340;SDS011;8788;49.930;8.660;2022-12-15T10:04:18;23.45;;;13.70;;
17340;SDS011;8788;49.930;8.660;2022-12-15T10:06:57;21.30;;;13.52;;
17340;SDS011;8788;49.930;8.660;2022-12-15T10:09:32;29.45;;;13.82;;
17340;SDS011;8788;49.930;8.660;2022-12-15T10:12:02;27.20;;;14.48;;
17340;SDS011;8788;49.930;8.660;2022-12-15T10:14:34;24.75;;;13.93;;
17340;SDS011;8788;49.930;8.660;2022-12-15T10:17:05;23.98;;;13.25;;
17340;SDS011;8788;49.930;8.660;2022-12-15T10:19:43;23.63;;;12.93;;
17340;SDS011;8788;49.930;8.660;2022-12-15T10:22:15;23.23;;;13.65;;
17340;SDS011;8788;49.930;8.660;2022-12-15T10:24:47;25.70;;;13.75;;
17340;SDS011;8788;49.930;8.660;2022-12-15T10:27:21;28.00;;;14.55;;
17340;SDS011;8788;49.930;8.660;2022-12-15T10:30:08;22.52;;;13.32;;
17340;SDS011;8788;49.930;8.660;2022-12-15T10:32:42;24.17;;;13.95;;
17340;SDS011;8788;49.930;8.660;2022-12-15T10:35:14;26.10;;;13.20;;
17340;SDS011;8788;49.930;8.660;2022-12-15T10:37:43;26.25;;;13.93;;
17340;SDS011;8788;49.930;8.660;2022-12-15T10:40:13;25.85;;;15.30;;
17340;SDS011;8788;49.930;8.660;2022-12-15T10:42:45;28.88;;;14.95;;
17340;SDS011;8788;49.930;8.660;2022-12-15T10:45:28;25.55;;;14.05;;
17340;SDS011;8788;49.930;8.660;2022-12-15T10:47:59;24.83;;;13.45;;
17340;SDS011;8788;49.930;8.660;2022-12-15T10:50:31;25.45;;;14.35;;
17340;SDS011;8788;49.930;8.660;2022-12-15T10:52:59;31.83;;;15.25;;
17340;SDS011;8788;49.930;8.660;2022-12-15T10:55:35;26.20;;;14.90;;
17340;SDS011;8788;49.930;8.660;2022-12-15T10:58:13;25.30;;;13.63;;
17340;SDS011;8788;49.930;8.660;2022-12-15T11:00:42;27.73;;;14.80;;
17340;SDS011;8788;49.930;8.660;2022-12-15T11:03:19;26.90;;;14.88;;
17340;SDS011;8788;49.930;8.660;2022-12-15T11:05:51;24.05;;;14.02;;
17340;SDS011;8788;49.930;8.660;2022-12-15T11:08:19;24.77;;;14.10;;
17340;SDS011;8788;49.930;8.660;2022-12-15T11:10:48;26.38;;;14.02;;
17340;SDS011;8788;49.930;8.660;2022-12-15T11:13:37;25.30;;;14.38;;
17340;SDS011;8788;49.930;8.660;2022-12-15T11:16:13;24.38;;;14.05;;
17340;SDS011;8788;49.930;8.660;2022-12-15T11:18:42;22.98;;;13.55;;
17340;SDS011;8788;49.930;8.660;2022-12-15T11:21:16;22.20;;;12.15;;
17340;SDS011;8788;49.930;8.660;2022-12-15T11:23:49;28.33;;;13.60;;
17340;SDS011;8788;49.930;8.660;2022-12-15T11:26:23;23.13;;;13.32;;
17340;SDS011;8788;49.930;8.660;2022-12-15T11:29:01;24.42;;;13.10;;
17340;SDS011;8788;49.930;8.660;2022-12-15T11:31:36;24.45;;;12.38;;
17340;SDS011;8788;49.930;8.660;2022-12-15T11:34:09;23.77;;;13.30;;
17340;SDS011;8788;49.930;8.660;2022-12-15T11:39:52;24.00;;;14.02;;
17340;SDS011;8788;49.930;8.660;2022-12-15T11:42:33;22.98;;;12.68;;
17340;SDS011;8788;49.930;8.660;2022-12-15T11:45:15;26.73;;;13.07;;
17340;SDS011;8788;49.930;8.660;2022-12-15T11:47:47;21.70;;;13.30;;
17340;SDS011;8788;49.930;8.660;2022-12-15T11:50:25;24.10;;;12.82;;
17340;SDS011;8788;49.930;8.660;2022-12-15T11:55:52;22.17;;;13.80;;
17340;SDS011;8788;49.930;8.660;2022-12-15T12:01:20;19.95;;;11.80;;
17340;SDS011;8788;49.930;8.660;2022-12-15T12:04:05;21.48;;;13.73;;
17340;SDS011;8788;49.930;8.660;2022-12-15T12:06:41;21.08;;;11.45;;
17340;SDS011;8788;49.930;8.660;2022-12-15T12:12:03;26.60;;;14.02;;
17340;SDS011;8788;49.930;8.660;2022-12-15T12:14:41;27.58;;;15.18;;
17340;SDS011;8788;49.930;8.660;2022-12-15T12:17:21;22.60;;;13.15;;
17340;SDS011;8788;49.930;8.660;2022-12-15T12:20:00;20.95;;;12.07;;
17340;SDS011;8788;49.930;8.660;2022-12-15T12:22:34;23.92;;;13.38;;
17340;SDS011;8788;49.930;8.660;2022-12-15T12:25:08;22.00;;;13.10;;
17340;SDS011;8788;49.930;8.660;2022-12-15T12:27:42;19.60;;;11.82;;
17340;SDS011;8788;49.930;8.660;2022-12-15T12:30:17;23.75;;;12.85;;
17340;SDS011;8788;49.930;8.660;2022-12-15T12:32:50;21.58;;;13.18;;
17340;SDS011;8788;49.930;8.660;2022-12-15T12:35:25;19.95;;;11.77;;
17340;SDS011;8788;49.930;8.660;2022-12-15T12:37:58;24.65;;;13.93;;
17340;SDS011;8788;49.930;8.660;2022-12-15T12:40:27;22.85;;;13.57;;
17340;SDS011;8788;49.930;8.660;2022-12-15T12:43:07;24.38;;;11.98;;
17340;SDS011;8788;49.930;8.660;2022-12-15T12:45:37;26.27;;;13.43;;
17340;SDS011;8788;49.930;8.660;2022-12-15T12:48:14;23.83;;;13.85;;
17340;SDS011;8788;49.930;8.660;2022-12-15T12:50:47;25.65;;;13.20;;
17340;SDS011;8788;49.930;8.660;2022-12-15T12:53:22;18.67;;;11.93;;
17340;SDS011;8788;49.930;8.660;2022-12-15T12:55:52;22.48;;;13.00;;
17340;SDS011;8788;49.930;8.660;2022-12-15T12:58:29;21.05;;;12.32;;
17340;SDS011;8788;49.930;8.660;2022-12-15T13:01:05;24.70;;;13.75;;
17340;SDS011;8788;49.930;8.660;2022-12-15T13:03:45;23.17;;;13.77;;
17340;SDS011;8788;49.930;8.660;2022-12-15T13:09:22;27.20;;;12.95;;
17340;SDS011;8788;49.930;8.660;2022-12-15T13:12:01;23.77;;;12.55;;
17340;SDS011;8788;49.930;8.660;2022-12-15T13:14:32;24.48;;;12.32;;
17340;SDS011;8788;49.930;8.660;2022-12-15T13:17:10;20.70;;;11.82;;
17340;SDS011;8788;49.930;8.660;2022-12-15T13:22:41;30.25;;;15.02;;
17340;SDS011;8788;49.930;8.660;2022-12-15T13:28:15;26.23;;;12.55;;
17340;SDS011;8788;49.930;8.660;2022-12-15T13:33:49;25.23;;;12.90;;
17340;SDS011;8788;49.930;8.660;2022-12-15T13:47:58;22.38;;;13.15;;
17340;SDS011;8788;49.930;8.660;2022-12-15T13:50:37;19.17;;;12.18;;
17340;SDS011;8788;49.930;8.660;2022-12-15T13:53:14;24.90;;;12.90;;
17340;SDS011;8788;49.930;8.660;2022-12-15T13:55:50;29.90;;;13.48;;
17340;SDS011;8788;49.930;8.660;2022-12-15T13:58:20;26.95;;;13.88;;
17340;SDS011;8788;49.930;8.660;2022-12-15T14:00:50;25.52;;;13.73;;
17340;SDS011;8788;49.930;8.660;2022-12-15T14:03:20;26.92;;;14.10;;
17340;SDS011;8788;49.930;8.660;2022-12-15T14:05:48;26.77;;;13.45;;
17340;SDS011;8788;49.930;8.660;2022-12-15T14:08:19;23.00;;;13.20;;
17340;SDS011;8788;49.930;8.660;2022-12-15T14:10:49;28.40;;;14.85;;
17340;SDS011;8788;49.930;8.660;2022-12-15T14:13:19;27.00;;;13.60;;
17340;SDS011;8788;49.930;8.660;2022-12-15T14:15:50;22.70;;;13.48;;
17340;SDS011;8788;49.930;8.660;2022-12-15T14:18:23;22.70;;;13.57;;
17340;SDS011;8788;49.930;8.660;2022-12-15T14:20:52;26.50;;;12.93;;
17340;SDS011;8788;49.930;8.660;2022-12-15T14:23:22;26.58;;;14.20;;
17340;SDS011;8788;49.930;8.660;2022-12-15T14:25:51;26.50;;;14.10;;
17340;SDS011;8788;49.930;8.660;2022-12-15T14:28:23;20.23;;;12.48;;
17340;SDS011;8788;49.930;8.660;2022-12-15T14:30:52;32.90;;;13.55;;
17340;SDS011;8788;49.930;8.660;2022-12-15T14:33:22;24.58;;;12.68;;
17340;SDS011;8788;49.930;8.660;2022-12-15T14:35:50;30.45;;;13.27;;
17340;SDS011;8788;49.930;8.660;2022-12-15T14:38:21;21.50;;;12.13;;
17340;SDS011;8788;49.930;8.660;2022-12-15T14:40:53;23.02;;;13.52;;
17340;SDS011;8788;49.930;8.660;2022-12-15T14:43:22;27.50;;;12.98;;
17340;SDS011;8788;49.930;8.660;2022-12-15T14:45:54;19.08;;;11.55;;
17340;SDS011;8788;49.930;8.660;2022-12-15T14:48:31;21.98;;;12.02;;
17340;SDS011;8788;49.930;8.660;2022-12-15T14:51:00;19.95;;;11.35;;
17340;SDS011;8788;49.930;8.660;2022-12-15T14:53:30;25.08;;;12.30;;
17340;SDS011;8788;49.930;8.660;2022-12-15T14:56:11;25.42;;;12.07;;
17340;SDS011;8788;49.930;8.660;2022-12-15T14:58:40;23.10;;;11.48;;
17340;SDS011;8788;49.930;8.660;2022-12-15T15:01:20;24.30;;;11.65;;
17340;SDS011;8788;49.930;8.660;2022-12-15T15:03:56;18.65;;;11.80;;
17340;SDS011;8788;49.930;8.660;2022-12-15T15:06:27;23.63;;;11.38;;
17340;SDS011;8788;49.930;8.660;2022-12-15T15:09:14;21.85;;;11.18;;
17340;SDS011;8788;49.930;8.660;2022-12-15T15:11:46;24.88;;;11.40;;
17340;SDS011;8788;49.930;8.660;2022-12-15T15:14:18;25.10;;;11.70;;
17340;SDS011;8788;49.930;8.660;2022-12-15T15:16:59;26.77;;;12.07;;
17340;SDS011;8788;49.930;8.660;2022-12-15T15:19:29;35.00;;;17.10;;
17340;SDS011;8788;49.930;8.660;2022-12-15T15:21:58;25.52;;;14.48;;
17340;SDS011;8788;49.930;8.660;2022-12-15T15:24:31;22.75;;;12.18;;
17340;SDS011;8788;49.930;8.660;2022-12-15T15:27:16;22.40;;;12.20;;
17340;SDS011;8788;49.930;8.660;2022-12-15T15:29:49;20.75;;;11.20;;
17340;SDS011;8788;49.930;8.660;2022-12-15T15:32:17;21.38;;;10.45;;
17340;SDS011;8788;49.930;8.660;2022-12-15T15:34:45;22.33;;;12.15;;
17340;SDS011;8788;49.930;8.660;2022-12-15T15:37:17;24.45;;;12.43;;
17340;SDS011;8788;49.930;8.660;2022-12-15T15:39:47;24.63;;;12.35;;
17340;SDS011;8788;49.930;8.660;2022-12-15T15:42:16;22.65;;;12.93;;
17340;SDS011;8788;49.930;8.660;2022-12-15T15:44:43;27.10;;;12.63;;
17340;SDS011;8788;49.930;8.660;2022-12-15T15:47:15;23.48;;;12.52;;
17340;SDS011;8788;49.930;8.660;2022-12-15T15:49:46;21.75;;;12.43;;
17340;SDS011;8788;49.930;8.660;2022-12-15T15:52:13;22.67;;;12.27;;
17340;SDS011;8788;49.930;8.660;2022-12-15T15:54:40;24.65;;;11.85;;
17340;SDS011;8788;49.930;8.660;2022-12-15T15:57:12;23.38;;;11.75;;
17340;SDS011;8788;49.930;8.660;2022-12-15T15:59:40;26.67;;;13.00;;
17340;SDS011;8788;49.930;8.660;2022-12-15T16:02:08;28.13;;;13.63;;
17340;SDS011;8788;49.930;8.660;2022-12-15T16:04:38;21.50;;;11.35;;
17340;SDS011;8788;49.930;8.660;2022-12-15T16:07:11;23.80;;;11.65;;
17340;SDS011;8788;49.930;8.660;2022-12-15T16:09:44;25.15;;;13.23;;
17340;SDS011;8788;49.930;8.660;2022-12-15T16:12:16;21.58;;;11.75;;
17340;SDS011;8788;49.930;8.660;2022-12-15T16:14:51;22.40;;;11.77;;
17340;SDS011;8788;49.930;8.660;2022-12-15T16:17:19;22.77;;;11.68;;
17340;SDS011;8788;49.930;8.660;2022-12-15T16:19:47;23.67;;;11.52;;
17340;SDS011;8788;49.930;8.660;2022-12-15T16:22:15;25.73;;;12.05;;
17340;SDS011;8788;49.930;8.660;2022-12-15T16:24:44;25.85;;;13.07;;
17340;SDS011;8788;49.930;8.660;2022-12-15T16:27:11;23.50;;;12.15;;
17340;SDS011;8788;49.930;8.660;2022-12-15T16:29:41;25.27;;;11.98;;
17340;SDS011;8788;49.930;8.660;2022-12-15T16:32:09;21.85;;;12.20;;
17340;SDS011;8788;49.930;8.660;2022-12-15T16:34:37;20.13;;;10.65;;
17340;SDS011;8788;49.930;8.660;2022-12-15T16:37:08;20.63;;;11.95;;
17340;SDS011;8788;49.930;8.660;2022-12-15T16:39:46;21.85;;;11.75;;
17340;SDS011;8788;49.930;8.660;2022-12-15T16:42:14;24.45;;;12.48;;
17340;SDS011;8788;49.930;8.660;2022-12-15T16:44:42;25.25;;;11.35;;
17340;SDS011;8788;49.930;8.660;2022-12-15T16:47:09;20.65;;;11.13;;
17340;SDS011;8788;49.930;8.660;2022-12-15T16:49:37;26.45;;;13.43;;
17340;SDS011;8788;49.930;8.660;2022-12-15T16:52:05;22.15;;;12.32;;
17340;SDS011;8788;49.930;8.660;2022-12-15T16:54:39;23.00;;;11.32;;
17340;SDS011;8788;49.930;8.660;2022-12-15T16:57:08;30.38;;;11.75;;
17340;SDS011;8788;49.930;8.660;2022-12-15T16:59:36;23.23;;;11.35;;
17340;SDS011;8788;49.930;8.660;2022-12-15T17:02:14;23.42;;;11.90;;
17340;SDS011;8788;49.930;8.660;2022-12-15T17:04:48;24.73;;;13.32;;
17340;SDS011;8788;49.930;8.660;2022-12-15T17:07:16;25.95;;;12.45;;
17340;SDS011;8788;49.930;8.660;2022-12-15T17:09:44;27.70;;;14.27;;
17340;SDS011;8788;49.930;8.660;2022-12-15T17:12:11;26.13;;;11.68;;
17340;SDS011;8788;49.930;8.660;2022-12-15T17:14:41;22.50;;;11.85;;
17340;SDS011;8788;49.930;8.660;2022-12-15T17:17:12;23.67;;;12.25;;
17340;SDS011;8788;49.930;8.660;2022-12-15T17:19:41;21.88;;;10.90;;
17340;SDS011;8788;49.930;8.660;2022-12-15T17:22:08;23.55;;;12.63;;
17340;SDS011;8788;49.930;8.660;2022-12-15T17:24:39;26.90;;;13.02;;
17340;SDS011;8788;49.930;8.660;2022-12-15T17:27:08;23.83;;;11.73;;
17340;SDS011;8788;49.930;8.660;2022-12-15T17:29:45;26.85;;;12.73;;
17340;SDS011;8788;49.930;8.660;2022-12-15T17:32:13;30.42;;;14.57;;
17340;SDS011;8788;49.930;8.660;2022-12-15T17:34:40;25.52;;;12.30;;
17340;SDS011;8788;49.930;8.660;2022-12-15T17:37:08;28.05;;;13.63;;
17340;SDS011;8788;49.930;8.660;2022-12-15T17:39:39;21.27;;;11.45;;
17340;SDS011;8788;49.930;8.660;2022-12-15T17:42:10;24.58;;;12.60;;
17340;SDS011;8788;49.930;8.660;2022-12-15T17:44:43;22.50;;;12.88;;
17340;SDS011;8788;49.930;8.660;2022-12-15T17:47:12;22.80;;;11.27;;
17340;SDS011;8788;49.930;8.660;2022-12-15T17:49:41;25.92;;;13.20;;
17340;SDS011;8788;49.930;8.660;2022-12-15T17:52:21;22.42;;;12.02;;
17340;SDS011;8788;49.930;8.660;2022-12-15T17:54:52;19.45;;;10.57;;
17340;SDS011;8788;49.930;8.660;2022-12-15T17:57:19;20.98;;;12.25;;
17340;SDS011;8788;49.930;8.660;2022-12-15T17:59:47;21.70;;;11.68;;
17340;SDS011;8788;49.930;8.660;2022-12-15T18:02:15;20.02;;;11.75;;
17340;SDS011;8788;49.930;8.660;2022-12-15T18:04:43;22.83;;;12.30;;
17340;SDS011;8788;49.930;8.660;2022-12-15T18:07:14;20.15;;;11.93;;
17340;SDS011;8788;49.930;8.660;2022-12-15T18:09:43;24.05;;;12.90;;
17340;SDS011;8788;49.930;8.660;2022-12-15T18:12:17;21.45;;;12.13;;
17340;SDS011;8788;49.930;8.660;2022-12-15T18:14:45;21.90;;;12.40;;
17340;SDS011;8788;49.930;8.660;2022-12-15T18:17:12;23.02;;;12.48;;
17340;SDS011;8788;49.930;8.660;2022-12-15T18:19:41;23.08;;;11.40;;
17340;SDS011;8788;49.930;8.660;2022-12-15T18:22:09;23.75;;;12.20;;
17340;SDS011;8788;49.930;8.660;2022-12-15T18:24:38;23.02;;;12.32;;
17340;SDS011;8788;49.930;8.660;2022-12-15T18:27:11;24.63;;;11.73;;
17340;SDS011;8788;49.930;8.660;2022-12-15T18:29:44;23.90;;;11.73;;
17340;SDS011;8788;49.930;8.660;2022-12-15T18:32:12;20.55;;;11.32;;
17340;SDS011;8788;49.930;8.660;2022-12-15T18:34:40;24.35;;;11.80;;
17340;SDS011;8788;49.930;8.660;2022-12-15T18:37:10;24.83;;;11.45;;
17340;SDS011;8788;49.930;8.660;2022-12-15T18:39:41;23.90;;;11.05;;
17340;SDS011;8788;49.930;8.660;2022-12-15T18:42:11;26.95;;;12.45;;
17340;SDS011;8788;49.930;8.660;2022-12-15T18:44:40;18.73;;;11.50;;
17340;SDS011;8788;49.930;8.660;2022-12-15T18:47:13;21.73;;;10.60;;
17340;SDS011;8788;49.930;8.660;2022-12-15T18:49:43;24.23;;;12.93;;
17340;SDS011;8788;49.930;8.660;2022-12-15T18:52:12;21.42;;;12.00;;
17340;SDS011;8788;49.930;8.660;2022-12-15T18:54:42;23.58;;;12.52;;
17340;SDS011;8788;49.930;8.660;2022-12-15T18:57:20;20.42;;;12.88;;
17340;SDS011;8788;49.930;8.660;2022-12-15T18:59:51;16.98;;;10.30;;
17340;SDS011;8788;49.930;8.660;2022-12-15T19:02:21;24.02;;;12.25;;
17340;SDS011;8788;49.930;8.660;2022-12-15T19:04:50;19.17;;;10.57;;
17340;SDS011;8788;49.930;8.660;2022-12-15T19:07:17;17.95;;;10.30;;
17340;SDS011;8788;49.930;8.660;2022-12-15T19:09:44;18.20;;;10.60;;
17340;SDS011;8788;49.930;8.660;2022-12-15T19:12:12;22.52;;;11.10;;
17340;SDS011;8788;49.930;8.660;2022-12-15T19:14:43;19.35;;;10.82;;
17340;SDS011;8788;49.930;8.660;2022-12-15T19:17:12;19.27;;;10.82;;
17340;SDS011;8788;49.930;8.660;2022-12-15T19:20:00;19.75;;;11.52;;
17340;SDS011;8788;49.930;8.660;2022-12-15T19:22:46;14.05;;;9.23;;
17340;SDS011;8788;49.930;8.660;2022-12-15T19:25:15;21.25;;;10.95;;
17340;SDS011;8788;49.930;8.660;2022-12-15T19:27:45;21.23;;;11.90;;
17340;SDS011;8788;49.930;8.660;2022-12-15T19:30:14;20.10;;;10.65;;
17340;SDS011;8788;49.930;8.660;2022-12-15T19:32:42;20.25;;;11.57;;
17340;SDS011;8788;49.930;8.660;2022-12-15T19:35:11;19.00;;;11.75;;
17340;SDS011;8788;49.930;8.660;2022-12-15T19:37:38;19.35;;;10.68;;
17340;SDS011;8788;49.930;8.660;2022-12-15T19:40:10;18.20;;;10.00;;